createdAt,value
2019-02-26T00:04:29.775Z,77.70
2019-02-26T00:09:34.622Z,78.00
2019-02-26T00:14:34.867Z,77.80
2019-02-26T00:19:36.173Z,78.90
2019-02-26T00:24:38.155Z,78.10
2019-02-26T00:29:40.825Z,78.50
2019-02-26T00:34:42.174Z,78.40
2019-02-26T00:39:45.178Z,78.50
2019-02-26T00:44:46.803Z,78.60
2019-02-26T00:49:48.559Z,78.80
2019-02-26T00:54:53.619Z,79.10
2019-02-26T00:59:54.536Z,79.20
2019-02-26T01:04:55.972Z,79.40
2019-02-26T01:09:59.102Z,79.20
2019-02-26T01:15:02.566Z,79.50
2019-02-26T01:20:08.980Z,80.10
2019-02-26T01:25:12.745Z,79.70
2019-02-26T01:30:18.202Z,80.00
2019-02-26T01:35:18.326Z,80.30
2019-02-26T01:40:21.664Z,80.30
2019-02-26T01:45:25.001Z,80.60
2019-02-26T01:50:45.188Z,80.80
2019-02-26T01:55:48.316Z,80.80
2019-02-26T02:00:50.435Z,80.90
2019-02-26T02:05:53.004Z,81.00
2019-02-26T02:10:58.923Z,81.10
2019-02-26T02:15:59.720Z,81.10
2019-02-26T02:21:01.392Z,81.30
2019-02-26T02:26:04.388Z,81.50
2019-02-26T02:31:06.223Z,81.50
2019-02-26T02:36:11.512Z,81.50
2019-02-26T02:41:10.713Z,81.80
2019-02-26T02:46:11.988Z,81.70
2019-02-26T02:51:19.528Z,81.90
2019-02-26T02:56:20.838Z,81.90
2019-02-26T03:01:24.526Z,82.00
2019-02-26T03:06:29.519Z,82.00
2019-02-26T03:11:28.658Z,82.20
2019-02-26T03:16:30.868Z,82.20
2019-02-26T03:21:32.154Z,82.40
2019-02-26T03:26:33.555Z,83.00
2019-02-26T03:31:40.518Z,83.80
2019-02-26T03:36:40.204Z,83.60
2019-02-26T03:41:43.087Z,83.30
2019-02-26T03:47:03.573Z,83.00
2019-02-26T03:52:04.862Z,83.00
2019-02-26T03:57:06.401Z,83.00
2019-02-26T04:02:09.497Z,83.00
2019-02-26T04:07:11.321Z,82.80
2019-02-26T04:12:13.573Z,82.70
2019-02-26T04:17:15.828Z,83.00
2019-02-26T04:22:26.352Z,83.10
2019-02-26T04:27:52.016Z,83.00
2019-02-26T04:33:30.338Z,83.20
2019-02-26T04:39:03.923Z,83.00
2019-02-26T04:44:40.854Z,83.10
2019-02-26T04:49:42.950Z,83.10
2019-02-26T04:54:44.710Z,83.00
2019-02-26T04:59:46.217Z,83.00
2019-02-26T05:04:47.633Z,83.20
2019-02-26T05:09:51.128Z,83.50
2019-02-26T05:14:52.095Z,83.50
2019-02-26T05:19:53.489Z,83.60
2019-02-26T05:24:54.909Z,83.70
2019-02-26T05:29:56.284Z,83.70
2019-02-26T05:34:57.605Z,83.90
2019-02-26T05:39:58.981Z,84.00
2019-02-26T05:45:02.987Z,84.10
2019-02-26T05:50:09.409Z,84.20
2019-02-26T05:55:13.937Z,84.30
2019-02-26T06:00:17.230Z,84.30
2019-02-26T06:05:20.302Z,84.60
2019-02-26T06:10:21.553Z,84.70
2019-02-26T06:15:25.891Z,85.00
2019-02-26T06:20:29.216Z,85.00
2019-02-26T06:25:31.023Z,85.30
2019-02-26T06:30:32.365Z,85.20
2019-02-26T06:35:34.162Z,85.20
2019-02-26T06:40:39.121Z,85.10
2019-02-26T06:45:41.273Z,84.80
2019-02-26T06:50:43.527Z,85.00
2019-02-26T06:55:45.043Z,85.30
2019-02-26T07:00:48.167Z,85.30
2019-02-26T07:05:49.787Z,85.30
2019-02-26T07:10:51.174Z,85.50
2019-02-26T07:15:52.498Z,85.60
2019-02-26T07:20:55.979Z,85.70
2019-02-26T07:25:56.989Z,85.70
2019-02-26T07:30:59.873Z,85.70
2019-02-26T07:36:03.955Z,85.60
2019-02-26T07:41:06.148Z,85.70
2019-02-26T07:46:09.464Z,85.90
2019-02-26T07:51:10.931Z,86.30
2019-02-26T07:56:12.246Z,86.60
2019-02-26T08:01:13.553Z,86.80
2019-02-26T08:06:14.853Z,87.00
2019-02-26T08:11:16.261Z,87.20
2019-02-26T08:16:18.348Z,87.30
2019-02-26T08:21:22.222Z,87.70
2019-02-26T08:26:24.894Z,87.80
2019-02-26T08:31:27.972Z,87.90
2019-02-26T08:36:29.363Z,87.60
2019-02-26T08:41:30.675Z,86.60
2019-02-26T08:46:32.070Z,85.80
2019-02-26T08:51:33.346Z,84.30
2019-02-26T08:56:36.391Z,82.20
2019-02-26T09:01:37.874Z,80.50
2019-02-26T09:06:39.262Z,78.80
2019-02-26T09:11:40.668Z,76.40
2019-02-26T09:16:42.027Z,74.80
2019-02-26T09:21:45.256Z,73.30
2019-02-26T09:26:47.382Z,72.50
2019-02-26T09:31:49.984Z,71.30
2019-02-26T09:36:53.055Z,70.70
2019-02-26T09:41:57.001Z,70.00
2019-02-26T09:47:00.052Z,69.90
2019-02-26T09:52:01.556Z,68.90
2019-02-26T09:57:04.354Z,68.50
2019-02-26T10:02:06.132Z,67.80
2019-02-26T10:07:09.890Z,67.20
2019-02-26T10:12:15.119Z,66.90
2019-02-26T10:17:14.655Z,66.00
2019-02-26T10:22:17.363Z,65.80
2019-02-26T10:27:18.960Z,65.40
2019-02-26T10:32:20.817Z,64.50
2019-02-26T10:37:22.251Z,63.90
2019-02-26T10:42:23.652Z,63.50
2019-02-26T10:47:27.327Z,62.70
2019-02-26T10:52:31.057Z,62.10
2019-02-26T10:57:34.238Z,61.70
2019-02-26T11:02:40.693Z,61.20
2019-02-26T11:07:42.338Z,61.10
2019-02-26T11:12:45.789Z,60.70
2019-02-26T11:17:48.548Z,60.20
2019-02-26T11:22:52.067Z,60.00
2019-02-26T11:27:53.647Z,59.40
2019-02-26T11:32:58.740Z,58.90
2019-02-26T11:37:59.910Z,58.10
2019-02-26T11:43:10.896Z,57.50
2019-02-26T11:48:06.643Z,57.40
2019-02-26T11:53:12.154Z,56.90
2019-02-26T11:58:15.899Z,56.60
2019-02-26T12:03:22.654Z,56.20
2019-02-26T12:08:26.659Z,55.10
2019-02-26T12:13:29.142Z,54.90
2019-02-26T12:18:30.750Z,54.70
2019-02-26T12:23:34.524Z,54.60
2019-02-26T12:28:37.639Z,54.40
2019-02-26T12:33:39.206Z,54.10
2019-02-26T12:38:40.985Z,53.50
2019-02-26T12:43:46.184Z,53.20
2019-02-26T12:48:47.725Z,53.20
2019-02-26T12:53:50.159Z,53.20
2019-02-26T12:58:54.569Z,53.20
2019-02-26T13:03:55.602Z,53.10
2019-02-26T13:08:56.996Z,53.20
2019-02-26T13:13:59.863Z,53.10
2019-02-26T13:19:04.523Z,53.20
2019-02-26T13:29:08.057Z,53.30
2019-02-26T13:34:13.863Z,53.10
2019-02-26T13:39:21.922Z,53.00
2019-02-26T13:44:16.394Z,52.60
2019-02-26T13:49:18.642Z,52.50
2019-02-26T13:54:20.185Z,52.50
2019-02-26T13:59:21.639Z,52.50
2019-02-26T14:04:23.344Z,52.20
2019-02-26T14:09:43.761Z,52.20
2019-02-26T14:14:45.615Z,52.50
2019-02-26T14:19:48.342Z,52.60
2019-02-26T14:24:49.783Z,52.40
2019-02-26T14:29:53.038Z,52.30
2019-02-26T14:34:56.473Z,52.30
2019-02-26T14:39:58.985Z,52.30
2019-02-26T14:45:03.712Z,52.00
2019-02-26T14:50:11.165Z,51.70
2019-02-26T14:55:16.847Z,51.80
2019-02-26T15:00:27.018Z,51.70
2019-02-26T15:05:30.267Z,51.40
2019-02-26T15:10:31.903Z,51.30
2019-02-26T15:15:33.240Z,50.80
2019-02-26T15:20:34.743Z,50.50
2019-02-26T15:25:36.818Z,50.50
2019-02-26T15:30:39.147Z,50.50
2019-02-26T15:35:43.010Z,50.40
2019-02-26T15:40:45.107Z,50.50
2019-02-26T15:45:51.988Z,50.80
2019-02-26T15:50:51.693Z,51.30
2019-02-26T15:55:53.117Z,51.80
2019-02-26T16:00:55.518Z,51.90
2019-02-26T16:05:56.877Z,52.00
2019-02-26T16:11:00.264Z,51.90
2019-02-26T16:16:05.971Z,51.80
2019-02-26T16:21:07.611Z,52.00
2019-02-26T16:26:09.663Z,52.30
2019-02-26T16:31:11.959Z,52.90
2019-02-26T16:36:13.553Z,53.20
2019-02-26T16:41:15.602Z,53.60
2019-02-26T16:46:19.221Z,54.10
2019-02-26T16:51:21.750Z,54.20
2019-02-26T16:56:25.547Z,54.40
2019-02-26T17:01:27.729Z,54.50
2019-02-26T17:06:29.370Z,54.70
2019-02-26T17:11:33.432Z,55.00
2019-02-26T17:16:35.039Z,55.20
2019-02-26T17:21:36.718Z,55.60
2019-02-26T17:26:38.313Z,56.20
2019-02-26T17:31:39.864Z,56.60
2019-02-26T17:36:41.308Z,57.10
2019-02-26T17:41:44.819Z,57.60
2019-02-26T17:46:48.257Z,58.40
2019-02-26T17:51:50.820Z,58.80
2019-02-26T17:56:53.550Z,59.40
2019-02-26T18:01:54.970Z,59.70
2019-02-26T18:06:57.841Z,60.40
2019-02-26T18:12:02.270Z,61.10
2019-02-26T18:17:03.549Z,61.60
2019-02-26T18:22:05.224Z,62.20
2019-02-26T18:27:06.995Z,63.10
2019-02-26T18:32:11.158Z,64.40
2019-02-26T18:37:12.600Z,64.70
2019-02-26T18:42:15.598Z,65.30
2019-02-26T18:47:17.340Z,66.00
2019-02-26T18:52:18.995Z,66.80
2019-02-26T18:57:21.480Z,67.30
2019-02-26T19:02:23.137Z,67.80
2019-02-26T19:07:24.568Z,68.40
2019-02-26T19:12:26.125Z,69.10
2019-02-26T19:17:27.724Z,69.50
2019-02-26T19:22:29.212Z,70.00
2019-02-26T19:27:30.683Z,70.20
2019-02-26T19:32:34.417Z,70.80
2019-02-26T19:37:35.920Z,70.80
2019-02-26T19:42:37.471Z,71.10
2019-02-26T19:47:39.222Z,71.60
2019-02-26T19:52:42.653Z,72.20
2019-02-26T19:57:44.432Z,72.50
2019-02-26T20:02:47.856Z,72.30
2019-02-26T20:07:53.053Z,72.80
2019-02-26T20:12:54.852Z,73.10
2019-02-26T20:18:00.130Z,73.60
2019-02-26T20:23:05.185Z,73.90
2019-02-26T20:28:08.600Z,74.10
2019-02-26T20:33:09.997Z,74.10
2019-02-26T20:38:11.279Z,74.10
2019-02-26T20:43:12.746Z,74.30
2019-02-26T20:48:14.159Z,74.70
2019-02-26T20:53:15.687Z,75.00
2019-02-26T20:58:17.197Z,75.30
2019-02-26T21:03:18.624Z,75.60
2019-02-26T21:08:21.377Z,75.70
2019-02-26T21:13:23.807Z,75.80
2019-02-26T21:18:25.410Z,76.00
2019-02-26T21:23:28.497Z,76.30
2019-02-26T21:28:33.538Z,76.50
2019-02-26T21:33:33.739Z,76.50
2019-02-26T21:38:38.590Z,76.70
2019-02-26T21:43:40.359Z,77.00
2019-02-26T21:49:00.220Z,77.20
2019-02-26T21:54:03.485Z,77.50
2019-02-26T21:59:05.697Z,77.70
2019-02-26T22:04:06.994Z,77.80
2019-02-26T22:09:08.442Z,78.20
2019-02-26T22:14:11.960Z,78.20
2019-02-26T22:19:20.641Z,78.40
2019-02-26T22:24:22.105Z,78.70
2019-02-26T22:29:23.444Z,78.50
2019-02-26T22:34:24.867Z,78.70
2019-02-26T22:39:28.902Z,78.70
2019-02-26T22:44:30.298Z,78.90
2019-02-26T22:49:33.236Z,79.10
2019-02-26T22:54:36.657Z,79.30
2019-02-26T22:59:38.645Z,79.30
2019-02-26T23:04:42.167Z,79.10
2019-02-26T23:09:44.764Z,79.40
2019-02-26T23:14:46.814Z,79.20
2019-02-26T23:19:50.142Z,79.10
2019-02-26T23:24:51.684Z,79.20
2019-02-26T23:29:53.273Z,79.60
2019-02-26T23:35:03.445Z,79.70
2019-02-26T23:40:09.935Z,80.00
2019-02-26T23:45:11.783Z,80.10
2019-02-26T23:50:15.916Z,80.30
2019-02-26T23:55:17.396Z,80.40
